sensor_id;sensor_type;location;lat;lon;timestamp;P1;P2;P0
70570;PMS5003;58135;50.948;-1.458;2022-08-11T00:00:04;5;5;
70570;PMS5003;58135;50.948;-1.458;2022-08-11T00:02:31;7;7;
70570;PMS5003;58135;50.948;-1.458;2022-08-11T00:04:53;6;6;
70570;PMS5003;58135;50.948;-1.458;2022-08-11T00:07:19;6;6;
70570;PMS5003;58135;50.948;-1.458;2022-08-11T00:09:44;6;6;
70570;PMS5003;58135;50.948;-1.458;2022-08-11T00:12:12;6;6;
70570;PMS5003;58135;50.948;-1.458;2022-08-11T00:14:35;6;6;
70570;PMS5003;58135;50.948;-1.458;2022-08-11T00:17:01;6;6;
70570;PMS5003;58135;50.948;-1.458;2022-08-11T00:19:27;6;6;
70570;PMS5003;58135;50.948;-1.458;2022-08-11T00:21:52;9;8;
70570;PMS5003;58135;50.948;-1.458;2022-08-11T00:24:17;9;8;
70570;PMS5003;58135;50.948;-1.458;2022-08-11T00:26:46;8;8;
70570;PMS5003;58135;50.948;-1.458;2022-08-11T00:29:09;8;8;
70570;PMS5003;58135;50.948;-1.458;2022-08-11T00:31:34;8;8;
70570;PMS5003;58135;50.948;-1.458;2022-08-11T00:34:00;7;7;
70570;PMS5003;58135;50.948;-1.458;2022-08-11T00:36:26;6;6;
70570;PMS5003;58135;50.948;-1.458;2022-08-11T00:38:51;5;5;
70570;PMS5003;58135;50.948;-1.458;2022-08-11T00:41:19;7;7;
70570;PMS5003;58135;50.948;-1.458;2022-08-11T00:43:47;8;7;
70570;PMS5003;58135;50.948;-1.458;2022-08-11T00:46:09;7;7;
70570;PMS5003;58135;50.948;-1.458;2022-08-11T00:48:35;6;6;
70570;PMS5003;58135;50.948;-1.458;2022-08-11T00:51:00;8;7;
70570;PMS5003;58135;50.948;-1.458;2022-08-11T00:53:33;7;7;
70570;PMS5003;58135;50.948;-1.458;2022-08-11T01:00:47;6;6;
70570;PMS5003;58135;50.948;-1.458;2022-08-11T01:03:09;8;7;
70570;PMS5003;58135;50.948;-1.458;2022-08-11T01:05:37;7;7;
70570;PMS5003;58135;50.948;-1.458;2022-08-11T01:12:52;6;6;
70570;PMS5003;58135;50.948;-1.458;2022-08-11T01:15:19;6;6;
70570;PMS5003;58135;50.948;-1.458;2022-08-11T01:20:13;5;5;
70570;PMS5003;58135;50.948;-1.458;2022-08-11T01:22:41;7;6;
70570;PMS5003;58135;50.948;-1.458;2022-08-11T01:24:59;6;6;
70570;PMS5003;58135;50.948;-1.458;2022-08-11T01:27:25;6;6;
70570;PMS5003;58135;50.948;-1.458;2022-08-11T01:29:55;6;6;
70570;PMS5003;58135;50.948;-1.458;2022-08-11T01:39:32;6;6;
70570;PMS5003;58135;50.948;-1.458;2022-08-11T01:42:02;7;6;
70570;PMS5003;58135;50.948;-1.458;2022-08-11T01:44:22;7;7;
70570;PMS5003;58135;50.948;-1.458;2022-08-11T01:46:45;6;6;
70570;PMS5003;58135;50.948;-1.458;2022-08-11T01:49:11;7;7;
70570;PMS5003;58135;50.948;-1.458;2022-08-11T01:51:43;7;7;
70570;PMS5003;58135;50.948;-1.458;2022-08-11T01:54:02;7;6;
70570;PMS5003;58135;50.948;-1.458;2022-08-11T01:56:31;5;5;
70570;PMS5003;58135;50.948;-1.458;2022-08-11T01:59:01;7;6;
70570;PMS5003;58135;50.948;-1.458;2022-08-11T02:01:26;8;8;
70570;PMS5003;58135;50.948;-1.458;2022-08-11T02:03:45;6;6;
70570;PMS5003;58135;50.948;-1.458;2022-08-11T02:06:11;8;7;
70570;PMS5003;58135;50.948;-1.458;2022-08-11T02:08:39;8;7;
70570;PMS5003;58135;50.948;-1.458;2022-08-11T02:11:03;7;6;
70570;PMS5003;58135;50.948;-1.458;2022-08-11T02:13:31;6;6;
70570;PMS5003;58135;50.948;-1.458;2022-08-11T02:15:53;8;8;
70570;PMS5003;58135;50.948;-1.458;2022-08-11T02:18:19;7;7;
70570;PMS5003;58135;50.948;-1.458;2022-08-11T02:20:43;6;5;
70570;PMS5003;58135;50.948;-1.458;2022-08-11T02:23:12;7;7;
70570;PMS5003;58135;50.948;-1.458;2022-08-11T02:25:35;8;8;
70570;PMS5003;58135;50.948;-1.458;2022-08-11T02:28:01;7;7;
70570;PMS5003;58135;50.948;-1.458;2022-08-11T02:30:24;9;6;
70570;PMS5003;58135;50.948;-1.458;2022-08-11T02:32:50;9;8;
70570;PMS5003;58135;50.948;-1.458;2022-08-11T02:35:17;8;7;
70570;PMS5003;58135;50.948;-1.458;2022-08-11T02:37:43;8;8;
70570;PMS5003;58135;50.948;-1.458;2022-08-11T02:40:09;6;6;
70570;PMS5003;58135;50.948;-1.458;2022-08-11T02:42:32;6;6;
70570;PMS5003;58135;50.948;-1.458;2022-08-11T02:45:01;7;7;
70570;PMS5003;58135;50.948;-1.458;2022-08-11T02:47:26;8;8;
70570;PMS5003;58135;50.948;-1.458;2022-08-11T02:49:50;8;8;
70570;PMS5003;58135;50.948;-1.458;2022-08-11T02:52:15;7;7;
70570;PMS5003;58135;50.948;-1.458;2022-08-11T02:54:41;11;11;
70570;PMS5003;58135;50.948;-1.458;2022-08-11T02:57:05;7;7;
70570;PMS5003;58135;50.948;-1.458;2022-08-11T02:59:36;9;8;
70570;PMS5003;58135;50.948;-1.458;2022-08-11T03:01:57;8;8;
70570;PMS5003;58135;50.948;-1.458;2022-08-11T03:04:24;9;9;
70570;PMS5003;58135;50.948;-1.458;2022-08-11T03:06:48;8;8;
70570;PMS5003;58135;50.948;-1.458;2022-08-11T03:09:15;7;7;
70570;PMS5003;58135;50.948;-1.458;2022-08-11T03:11:45;8;8;
70570;PMS5003;58135;50.948;-1.458;2022-08-11T03:14:08;7;6;
70570;PMS5003;58135;50.948;-1.458;2022-08-11T03:16:32;8;8;
70570;PMS5003;58135;50.948;-1.458;2022-08-11T03:18:55;8;7;
70570;PMS5003;58135;50.948;-1.458;2022-08-11T03:21:22;7;7;
70570;PMS5003;58135;50.948;-1.458;2022-08-11T03:23:47;9;8;
70570;PMS5003;58135;50.948;-1.458;2022-08-11T03:26:14;6;6;
70570;PMS5003;58135;50.948;-1.458;2022-08-11T03:28:42;7;7;
70570;PMS5003;58135;50.948;-1.458;2022-08-11T03:31:09;8;8;
70570;PMS5003;58135;50.948;-1.458;2022-08-11T03:33:28;8;8;
70570;PMS5003;58135;50.948;-1.458;2022-08-11T03:36:00;10;10;
70570;PMS5003;58135;50.948;-1.458;2022-08-11T03:38:19;7;7;
70570;PMS5003;58135;50.948;-1.458;2022-08-11T03:40:49;8;8;
70570;PMS5003;58135;50.948;-1.458;2022-08-11T03:43:16;8;8;
70570;PMS5003;58135;50.948;-1.458;2022-08-11T03:45:36;7;7;
70570;PMS5003;58135;50.948;-1.458;2022-08-11T03:50:30;11;11;
70570;PMS5003;58135;50.948;-1.458;2022-08-11T03:52:55;9;9;
70570;PMS5003;58135;50.948;-1.458;2022-08-11T03:55:26;9;9;
70570;PMS5003;58135;50.948;-1.458;2022-08-11T03:57:49;11;10;
70570;PMS5003;58135;50.948;-1.458;2022-08-11T04:00:12;9;9;
70570;PMS5003;58135;50.948;-1.458;2022-08-11T04:09:55;9;9;
70570;PMS5003;58135;50.948;-1.458;2022-08-11T04:12:26;8;8;
70570;PMS5003;58135;50.948;-1.458;2022-08-11T04:14:42;9;9;
70570;PMS5003;58135;50.948;-1.458;2022-08-11T04:24:26;7;7;
70570;PMS5003;58135;50.948;-1.458;2022-08-11T04:26:54;8;8;
70570;PMS5003;58135;50.948;-1.458;2022-08-11T04:29:19;10;10;
70570;PMS5003;58135;50.948;-1.458;2022-08-11T04:31:43;11;11;
70570;PMS5003;58135;50.948;-1.458;2022-08-11T04:36:40;10;9;
70570;PMS5003;58135;50.948;-1.458;2022-08-11T04:39:00;9;9;
70570;PMS5003;58135;50.948;-1.458;2022-08-11T04:41:33;8;8;
70570;PMS5003;58135;50.948;-1.458;2022-08-11T04:46:21;7;7;
70570;PMS5003;58135;50.948;-1.458;2022-08-11T04:48:49;10;10;
70570;PMS5003;58135;50.948;-1.458;2022-08-11T04:51:10;11;11;
70570;PMS5003;58135;50.948;-1.458;2022-08-11T04:53:33;9;7;
70570;PMS5003;58135;50.948;-1.458;2022-08-11T04:56:01;12;12;
70570;PMS5003;58135;50.948;-1.458;2022-08-11T04:58:21;12;10;
70570;PMS5003;58135;50.948;-1.458;2022-08-11T05:00:50;10;10;
70570;PMS5003;58135;50.948;-1.458;2022-08-11T05:10:33;10;8;
70570;PMS5003;58135;50.948;-1.458;2022-08-11T05:12:54;9;9;
70570;PMS5003;58135;50.948;-1.458;2022-08-11T05:15:20;9;9;
70570;PMS5003;58135;50.948;-1.458;2022-08-11T05:17:48;10;10;
70570;PMS5003;58135;50.948;-1.458;2022-08-11T05:20:11;11;10;
70570;PMS5003;58135;50.948;-1.458;2022-08-11T05:22:37;11;11;
70570;PMS5003;58135;50.948;-1.458;2022-08-11T05:25:04;10;9;
70570;PMS5003;58135;50.948;-1.458;2022-08-11T05:27:31;13;12;
70570;PMS5003;58135;50.948;-1.458;2022-08-11T05:29:55;10;9;
70570;PMS5003;58135;50.948;-1.458;2022-08-11T05:32:19;12;11;
70570;PMS5003;58135;50.948;-1.458;2022-08-11T05:34:45;13;11;
70570;PMS5003;58135;50.948;-1.458;2022-08-11T05:37:11;13;11;
70570;PMS5003;58135;50.948;-1.458;2022-08-11T05:39:40;18;16;
70570;PMS5003;58135;50.948;-1.458;2022-08-11T05:42:01;11;11;
70570;PMS5003;58135;50.948;-1.458;2022-08-11T05:44:27;13;13;
70570;PMS5003;58135;50.948;-1.458;2022-08-11T05:46:52;10;10;
70570;PMS5003;58135;50.948;-1.458;2022-08-11T05:49:18;13;12;
70570;PMS5003;58135;50.948;-1.458;2022-08-11T05:51:43;12;12;
70570;PMS5003;58135;50.948;-1.458;2022-08-11T05:54:08;11;11;
70570;PMS5003;58135;50.948;-1.458;2022-08-11T05:56:39;12;11;
70570;PMS5003;58135;50.948;-1.458;2022-08-11T05:59:00;12;11;
70570;PMS5003;58135;50.948;-1.458;2022-08-11T06:01:26;12;12;
70570;PMS5003;58135;50.948;-1.458;2022-08-11T06:03:51;13;13;
70570;PMS5003;58135;50.948;-1.458;2022-08-11T06:06:16;9;8;
70570;PMS5003;58135;50.948;-1.458;2022-08-11T06:08:42;12;12;
70570;PMS5003;58135;50.948;-1.458;2022-08-11T06:11:07;11;10;
70570;PMS5003;58135;50.948;-1.458;2022-08-11T06:13:33;12;11;
70570;PMS5003;58135;50.948;-1.458;2022-08-11T06:15:58;10;10;
70570;PMS5003;58135;50.948;-1.458;2022-08-11T06:18:24;10;9;
70570;PMS5003;58135;50.948;-1.458;2022-08-11T06:20:50;14;13;
70570;PMS5003;58135;50.948;-1.458;2022-08-11T06:23:15;11;11;
70570;PMS5003;58135;50.948;-1.458;2022-08-11T06:25:41;14;12;
70570;PMS5003;58135;50.948;-1.458;2022-08-11T06:28:07;13;13;
70570;PMS5003;58135;50.948;-1.458;2022-08-11T06:30:32;12;12;
70570;PMS5003;58135;50.948;-1.458;2022-08-11T06:32:57;10;10;
70570;PMS5003;58135;50.948;-1.458;2022-08-11T06:35:24;13;12;
70570;PMS5003;58135;50.948;-1.458;2022-08-11T06:37:56;12;11;
70570;PMS5003;58135;50.948;-1.458;2022-08-11T06:40:22;9;8;
70570;PMS5003;58135;50.948;-1.458;2022-08-11T06:42:44;11;11;
70570;PMS5003;58135;50.948;-1.458;2022-08-11T06:45:06;11;11;
70570;PMS5003;58135;50.948;-1.458;2022-08-11T06:47:30;12;11;
70570;PMS5003;58135;50.948;-1.458;2022-08-11T06:49:56;13;11;
70570;PMS5003;58135;50.948;-1.458;2022-08-11T06:54:49;10;10;
70570;PMS5003;58135;50.948;-1.458;2022-08-11T06:57:12;12;11;
70570;PMS5003;58135;50.948;-1.458;2022-08-11T06:59:37;11;10;
70570;PMS5003;58135;50.948;-1.458;2022-08-11T07:02:05;12;11;
70570;PMS5003;58135;50.948;-1.458;2022-08-11T07:04:29;11;11;
70570;PMS5003;58135;50.948;-1.458;2022-08-11T07:06:59;11;11;
70570;PMS5003;58135;50.948;-1.458;2022-08-11T07:09:30;9;8;
70570;PMS5003;58135;50.948;-1.458;2022-08-11T07:11:51;10;10;
70570;PMS5003;58135;50.948;-1.458;2022-08-11T07:14:10;11;11;
70570;PMS5003;58135;50.948;-1.458;2022-08-11T07:16:36;9;9;
70570;PMS5003;58135;50.948;-1.458;2022-08-11T07:19:02;9;9;
70570;PMS5003;58135;50.948;-1.458;2022-08-11T07:21:28;9;9;
70570;PMS5003;58135;50.948;-1.458;2022-08-11T07:23:53;10;10;
70570;PMS5003;58135;50.948;-1.458;2022-08-11T07:26:18;9;9;
70570;PMS5003;58135;50.948;-1.458;2022-08-11T07:28:44;12;10;
70570;PMS5003;58135;50.948;-1.458;2022-08-11T07:31:09;10;10;
70570;PMS5003;58135;50.948;-1.458;2022-08-11T07:33:38;10;10;
70570;PMS5003;58135;50.948;-1.458;2022-08-11T07:36:00;8;8;
70570;PMS5003;58135;50.948;-1.458;2022-08-11T07:38:26;9;9;
70570;PMS5003;58135;50.948;-1.458;2022-08-11T07:40:51;11;10;
70570;PMS5003;58135;50.948;-1.458;2022-08-11T07:43:17;8;8;
70570;PMS5003;58135;50.948;-1.458;2022-08-11T07:45:42;11;9;
70570;PMS5003;58135;50.948;-1.458;2022-08-11T07:48:08;12;9;
70570;PMS5003;58135;50.948;-1.458;2022-08-11T07:50:33;8;8;
70570;PMS5003;58135;50.948;-1.458;2022-08-11T07:52:59;8;8;
70570;PMS5003;58135;50.948;-1.458;2022-08-11T07:55:24;11;10;
70570;PMS5003;58135;50.948;-1.458;2022-08-11T07:57:50;10;10;
70570;PMS5003;58135;50.948;-1.458;2022-08-11T08:00:16;10;9;
70570;PMS5003;58135;50.948;-1.458;2022-08-11T08:02:41;8;8;
70570;PMS5003;58135;50.948;-1.458;2022-08-11T08:05:07;10;10;
70570;PMS5003;58135;50.948;-1.458;2022-08-11T08:07:32;10;10;
70570;PMS5003;58135;50.948;-1.458;2022-08-11T08:09:57;10;9;
70570;PMS5003;58135;50.948;-1.458;2022-08-11T08:12:23;12;11;
70570;PMS5003;58135;50.948;-1.458;2022-08-11T08:14:48;6;6;
70570;PMS5003;58135;50.948;-1.458;2022-08-11T08:17:13;9;8;
70570;PMS5003;58135;50.948;-1.458;2022-08-11T08:19:38;7;7;
70570;PMS5003;58135;50.948;-1.458;2022-08-11T08:22:04;9;9;
70570;PMS5003;58135;50.948;-1.458;2022-08-11T08:24:30;9;9;
70570;PMS5003;58135;50.948;-1.458;2022-08-11T08:26:55;8;8;
70570;PMS5003;58135;50.948;-1.458;2022-08-11T08:29:21;9;9;
70570;PMS5003;58135;50.948;-1.458;2022-08-11T08:31:46;9;8;
70570;PMS5003;58135;50.948;-1.458;2022-08-11T08:34:11;10;8;
70570;PMS5003;58135;50.948;-1.458;2022-08-11T08:36:38;8;7;
70570;PMS5003;58135;50.948;-1.458;2022-08-11T08:39:02;8;7;
70570;PMS5003;58135;50.948;-1.458;2022-08-11T08:41:29;7;7;
70570;PMS5003;58135;50.948;-1.458;2022-08-11T08:43:54;7;7;
70570;PMS5003;58135;50.948;-1.458;2022-08-11T08:46:20;11;10;
70570;PMS5003;58135;50.948;-1.458;2022-08-11T08:48:44;7;7;
70570;PMS5003;58135;50.948;-1.458;2022-08-11T08:51:10;9;9;
70570;PMS5003;58135;50.948;-1.458;2022-08-11T08:53:35;7;7;
70570;PMS5003;58135;50.948;-1.458;2022-08-11T08:56:01;9;8;
70570;PMS5003;58135;50.948;-1.458;2022-08-11T08:58:26;9;8;
70570;PMS5003;58135;50.948;-1.458;2022-08-11T09:00:52;11;10;
70570;PMS5003;58135;50.948;-1.458;2022-08-11T09:03:17;8;8;
70570;PMS5003;58135;50.948;-1.458;2022-08-11T09:05:42;7;7;
70570;PMS5003;58135;50.948;-1.458;2022-08-11T09:08:08;7;7;
70570;PMS5003;58135;50.948;-1.458;2022-08-11T09:10:33;9;9;
70570;PMS5003;58135;50.948;-1.458;2022-08-11T09:12:58;7;7;
70570;PMS5003;58135;50.948;-1.458;2022-08-11T09:15:24;9;7;
70570;PMS5003;58135;50.948;-1.458;2022-08-11T09:17:50;9;9;
70570;PMS5003;58135;50.948;-1.458;2022-08-11T09:20:17;10;9;
70570;PMS5003;58135;50.948;-1.458;2022-08-11T09:22:41;9;9;
70570;PMS5003;58135;50.948;-1.458;2022-08-11T09:25:06;11;9;
70570;PMS5003;58135;50.948;-1.458;2022-08-11T09:27:31;8;8;
70570;PMS5003;58135;50.948;-1.458;2022-08-11T09:29:57;9;9;
70570;PMS5003;58135;50.948;-1.458;2022-08-11T09:32:22;9;8;
70570;PMS5003;58135;50.948;-1.458;2022-08-11T09:34:48;8;8;
70570;PMS5003;58135;50.948;-1.458;2022-08-11T09:37:13;9;9;
70570;PMS5003;58135;50.948;-1.458;2022-08-11T09:39:39;8;8;
70570;PMS5003;58135;50.948;-1.458;2022-08-11T09:42:04;9;9;
70570;PMS5003;58135;50.948;-1.458;2022-08-11T09:44:30;9;8;
70570;PMS5003;58135;50.948;-1.458;2022-08-11T09:46:55;11;10;
70570;PMS5003;58135;50.948;-1.458;2022-08-11T09:49:20;7;7;
70570;PMS5003;58135;50.948;-1.458;2022-08-11T09:51:46;9;9;
70570;PMS5003;58135;50.948;-1.458;2022-08-11T09:54:11;7;7;
70570;PMS5003;58135;50.948;-1.458;2022-08-11T09:56:37;9;9;
70570;PMS5003;58135;50.948;-1.458;2022-08-11T09:59:03;9;8;
70570;PMS5003;58135;50.948;-1.458;2022-08-11T10:01:29;8;8;
70570;PMS5003;58135;50.948;-1.458;2022-08-11T10:03:55;11;11;
70570;PMS5003;58135;50.948;-1.458;2022-08-11T10:06:18;7;7;
70570;PMS5003;58135;50.948;-1.458;2022-08-11T10:08:44;10;9;
70570;PMS5003;58135;50.948;-1.458;2022-08-11T10:11:10;9;8;
70570;PMS5003;58135;50.948;-1.458;2022-08-11T10:13:35;9;9;
70570;PMS5003;58135;50.948;-1.458;2022-08-11T10:16:01;10;10;
70570;PMS5003;58135;50.948;-1.458;2022-08-11T10:18:29;13;11;
70570;PMS5003;58135;50.948;-1.458;2022-08-11T10:20:51;9;9;
70570;PMS5003;58135;50.948;-1.458;2022-08-11T10:23:17;10;10;
70570;PMS5003;58135;50.948;-1.458;2022-08-11T10:25:42;10;10;
70570;PMS5003;58135;50.948;-1.458;2022-08-11T10:28:08;9;9;
70570;PMS5003;58135;50.948;-1.458;2022-08-11T10:30:33;11;11;
70570;PMS5003;58135;50.948;-1.458;2022-08-11T10:32:58;12;10;
70570;PMS5003;58135;50.948;-1.458;2022-08-11T10:35:24;10;10;
70570;PMS5003;58135;50.948;-1.458;2022-08-11T10:37:49;12;12;
70570;PMS5003;58135;50.948;-1.458;2022-08-11T10:40:20;12;11;
70570;PMS5003;58135;50.948;-1.458;2022-08-11T10:42:40;11;11;
70570;PMS5003;58135;50.948;-1.458;2022-08-11T10:45:06;12;12;
70570;PMS5003;58135;50.948;-1.458;2022-08-11T10:47:30;11;11;
70570;PMS5003;58135;50.948;-1.458;2022-08-11T10:49:56;12;11;
70570;PMS5003;58135;50.948;-1.458;2022-08-11T10:52:21;11;11;
70570;PMS5003;58135;50.948;-1.458;2022-08-11T10:54:47;12;12;
70570;PMS5003;58135;50.948;-1.458;2022-08-11T10:57:13;12;12;
70570;PMS5003;58135;50.948;-1.458;2022-08-11T10:59:38;9;9;
70570;PMS5003;58135;50.948;-1.458;2022-08-11T11:02:03;12;12;
70570;PMS5003;58135;50.948;-1.458;2022-08-11T11:04:32;10;10;
70570;PMS5003;58135;50.948;-1.458;2022-08-11T11:06:55;13;13;
70570;PMS5003;58135;50.948;-1.458;2022-08-11T11:09:20;11;11;
70570;PMS5003;58135;50.948;-1.458;2022-08-11T11:11:47;15;15;
70570;PMS5003;58135;50.948;-1.458;2022-08-11T11:14:11;11;11;
70570;PMS5003;58135;50.948;-1.458;2022-08-11T11:16:36;12;11;
70570;PMS5003;58135;50.948;-1.458;2022-08-11T11:19:02;12;11;
70570;PMS5003;58135;50.948;-1.458;2022-08-11T11:21:26;13;13;
70570;PMS5003;58135;50.948;-1.458;2022-08-11T11:23:52;12;12;
70570;PMS5003;58135;50.948;-1.458;2022-08-11T11:26:23;13;13;
70570;PMS5003;58135;50.948;-1.458;2022-08-11T11:28:48;13;13;
70570;PMS5003;58135;50.948;-1.458;2022-08-11T11:31:10;11;11;
70570;PMS5003;58135;50.948;-1.458;2022-08-11T11:33:39;11;11;
70570;PMS5003;58135;50.948;-1.458;2022-08-11T11:36:03;13;12;
70570;PMS5003;58135;50.948;-1.458;2022-08-11T11:38:24;10;10;
70570;PMS5003;58135;50.948;-1.458;2022-08-11T11:40:50;10;10;
70570;PMS5003;58135;50.948;-1.458;2022-08-11T11:43:15;13;12;
70570;PMS5003;58135;50.948;-1.458;2022-08-11T11:45:41;11;11;
70570;PMS5003;58135;50.948;-1.458;2022-08-11T11:48:06;14;14;
70570;PMS5003;58135;50.948;-1.458;2022-08-11T11:50:32;12;12;
70570;PMS5003;58135;50.948;-1.458;2022-08-11T11:52:57;11;11;
70570;PMS5003;58135;50.948;-1.458;2022-08-11T11:55:22;14;13;
70570;PMS5003;58135;50.948;-1.458;2022-08-11T11:57:47;10;10;
70570;PMS5003;58135;50.948;-1.458;2022-08-11T12:00:13;11;11;
70570;PMS5003;58135;50.948;-1.458;2022-08-11T12:02:39;9;9;
70570;PMS5003;58135;50.948;-1.458;2022-08-11T12:05:04;11;10;
70570;PMS5003;58135;50.948;-1.458;2022-08-11T12:07:29;9;9;
70570;PMS5003;58135;50.948;-1.458;2022-08-11T12:09:54;10;10;
70570;PMS5003;58135;50.948;-1.458;2022-08-11T12:12:20;9;9;
70570;PMS5003;58135;50.948;-1.458;2022-08-11T12:14:45;9;9;
70570;PMS5003;58135;50.948;-1.458;2022-08-11T12:17:11;11;10;
70570;PMS5003;58135;50.948;-1.458;2022-08-11T12:19:36;9;8;
70570;PMS5003;58135;50.948;-1.458;2022-08-11T12:22:01;9;9;
70570;PMS5003;58135;50.948;-1.458;2022-08-11T12:24:27;8;8;
70570;PMS5003;58135;50.948;-1.458;2022-08-11T12:26:52;9;8;
70570;PMS5003;58135;50.948;-1.458;2022-08-11T12:29:19;9;9;
70570;PMS5003;58135;50.948;-1.458;2022-08-11T12:31:43;9;9;
70570;PMS5003;58135;50.948;-1.458;2022-08-11T12:34:09;9;9;
70570;PMS5003;58135;50.948;-1.458;2022-08-11T12:36:35;13;13;
70570;PMS5003;58135;50.948;-1.458;2022-08-11T12:38:59;12;12;
70570;PMS5003;58135;50.948;-1.458;2022-08-11T12:41:25;9;8;
70570;PMS5003;58135;50.948;-1.458;2022-08-11T12:43:50;9;9;
70570;PMS5003;58135;50.948;-1.458;2022-08-11T12:46:18;9;9;
70570;PMS5003;58135;50.948;-1.458;2022-08-11T12:48:43;11;11;
70570;PMS5003;58135;50.948;-1.458;2022-08-11T12:51:08;12;12;
70570;PMS5003;58135;50.948;-1.458;2022-08-11T12:53:32;9;9;
70570;PMS5003;58135;50.948;-1.458;2022-08-11T12:55:58;10;9;
70570;PMS5003;58135;50.948;-1.458;2022-08-11T12:58:22;11;11;
70570;PMS5003;58135;50.948;-1.458;2022-08-11T13:00:48;7;7;
70570;PMS5003;58135;50.948;-1.458;2022-08-11T13:03:14;9;9;
70570;PMS5003;58135;50.948;-1.458;2022-08-11T13:05:39;11;11;
70570;PMS5003;58135;50.948;-1.458;2022-08-11T13:08:04;9;9;
70570;PMS5003;58135;50.948;-1.458;2022-08-11T13:10:30;11;11;
70570;PMS5003;58135;50.948;-1.458;2022-08-11T13:12:55;9;9;
70570;PMS5003;58135;50.948;-1.458;2022-08-11T13:15:21;8;8;
70570;PMS5003;58135;50.948;-1.458;2022-08-11T13:17:46;10;10;
70570;PMS5003;58135;50.948;-1.458;2022-08-11T13:20:11;8;8;
70570;PMS5003;58135;50.948;-1.458;2022-08-11T13:22:37;8;8;
70570;PMS5003;58135;50.948;-1.458;2022-08-11T13:25:03;7;7;
70570;PMS5003;58135;50.948;-1.458;2022-08-11T13:27:28;10;9;
70570;PMS5003;58135;50.948;-1.458;2022-08-11T13:29:53;14;13;
70570;PMS5003;58135;50.948;-1.458;2022-08-11T13:32:19;10;10;
70570;PMS5003;58135;50.948;-1.458;2022-08-11T13:34:44;9;9;
70570;PMS5003;58135;50.948;-1.458;2022-08-11T13:37:10;9;8;
70570;PMS5003;58135;50.948;-1.458;2022-08-11T13:39:35;10;10;
70570;PMS5003;58135;50.948;-1.458;2022-08-11T13:42:01;10;10;
70570;PMS5003;58135;50.948;-1.458;2022-08-11T13:44:27;10;10;
70570;PMS5003;58135;50.948;-1.458;2022-08-11T13:46:52;8;8;
70570;PMS5003;58135;50.948;-1.458;2022-08-11T13:49:17;8;8;
70570;PMS5003;58135;50.948;-1.458;2022-08-11T13:51:42;10;10;
70570;PMS5003;58135;50.948;-1.458;2022-08-11T13:54:09;9;9;
70570;PMS5003;58135;50.948;-1.458;2022-08-11T13:56:34;10;10;
70570;PMS5003;58135;50.948;-1.458;2022-08-11T13:58:59;10;10;
70570;PMS5003;58135;50.948;-1.458;2022-08-11T14:01:25;11;10;
70570;PMS5003;58135;50.948;-1.458;2022-08-11T14:03:49;8;8;
70570;PMS5003;58135;50.948;-1.458;2022-08-11T14:06:16;13;12;
70570;PMS5003;58135;50.948;-1.458;2022-08-11T14:08:40;8;8;
70570;PMS5003;58135;50.948;-1.458;2022-08-11T14:11:05;8;8;
70570;PMS5003;58135;50.948;-1.458;2022-08-11T14:13:31;8;8;
70570;PMS5003;58135;50.948;-1.458;2022-08-11T14:15:58;8;8;
70570;PMS5003;58135;50.948;-1.458;2022-08-11T14:18:24;8;8;
70570;PMS5003;58135;50.948;-1.458;2022-08-11T14:20:48;8;8;
70570;PMS5003;58135;50.948;-1.458;2022-08-11T14:23:12;8;8;
70570;PMS5003;58135;50.948;-1.458;2022-08-11T14:25:38;10;10;
70570;PMS5003;58135;50.948;-1.458;2022-08-11T14:28:03;9;9;
70570;PMS5003;58135;50.948;-1.458;2022-08-11T14:30:28;8;8;
70570;PMS5003;58135;50.948;-1.458;2022-08-11T14:32:54;9;9;
70570;PMS5003;58135;50.948;-1.458;2022-08-11T14:35:19;10;10;
70570;PMS5003;58135;50.948;-1.458;2022-08-11T14:37:45;9;9;
70570;PMS5003;58135;50.948;-1.458;2022-08-11T14:40:11;9;8;
70570;PMS5003;58135;50.948;-1.458;2022-08-11T14:42:35;10;9;
70570;PMS5003;58135;50.948;-1.458;2022-08-11T14:45:02;9;8;
70570;PMS5003;58135;50.948;-1.458;2022-08-11T14:47:26;9;9;
70570;PMS5003;58135;50.948;-1.458;2022-08-11T14:49:52;9;9;
70570;PMS5003;58135;50.948;-1.458;2022-08-11T14:52:17;7;7;
70570;PMS5003;58135;50.948;-1.458;2022-08-11T14:54:44;7;7;
70570;PMS5003;58135;50.948;-1.458;2022-08-11T14:57:08;8;8;
70570;PMS5003;58135;50.948;-1.458;2022-08-11T14:59:34;9;9;
70570;PMS5003;58135;50.948;-1.458;2022-08-11T15:01:59;9;9;
70570;PMS5003;58135;50.948;-1.458;2022-08-11T15:04:25;9;9;
70570;PMS5003;58135;50.948;-1.458;2022-08-11T15:06:50;10;10;
70570;PMS5003;58135;50.948;-1.458;2022-08-11T15:09:15;8;8;
70570;PMS5003;58135;50.948;-1.458;2022-08-11T15:11:41;8;8;
70570;PMS5003;58135;50.948;-1.458;2022-08-11T15:14:07;9;9;
70570;PMS5003;58135;50.948;-1.458;2022-08-11T15:16:32;9;8;
70570;PMS5003;58135;50.948;-1.458;2022-08-11T15:18:57;9;9;
70570;PMS5003;58135;50.948;-1.458;2022-08-11T15:21:23;9;9;
70570;PMS5003;58135;50.948;-1.458;2022-08-11T15:23:49;7;7;
70570;PMS5003;58135;50.948;-1.458;2022-08-11T15:26:14;9;9;
70570;PMS5003;58135;50.948;-1.458;2022-08-11T15:28:41;9;9;
70570;PMS5003;58135;50.948;-1.458;2022-08-11T15:31:04;6;6;
70570;PMS5003;58135;50.948;-1.458;2022-08-11T15:33:30;7;7;
70570;PMS5003;58135;50.948;-1.458;2022-08-11T15:35:56;10;10;
70570;PMS5003;58135;50.948;-1.458;2022-08-11T15:38:21;10;10;
70570;PMS5003;58135;50.948;-1.458;2022-08-11T15:40:46;9;9;
70570;PMS5003;58135;50.948;-1.458;2022-08-11T15:43:13;8;8;
70570;PMS5003;58135;50.948;-1.458;2022-08-11T15:45:38;9;9;
70570;PMS5003;58135;50.948;-1.458;2022-08-11T15:48:05;8;8;
70570;PMS5003;58135;50.948;-1.458;2022-08-11T15:50:29;14;14;
70570;PMS5003;58135;50.948;-1.458;2022-08-11T15:52:55;10;10;
70570;PMS5003;58135;50.948;-1.458;2022-08-11T15:55:20;8;8;
70570;PMS5003;58135;50.948;-1.458;2022-08-11T15:57:46;7;7;
70570;PMS5003;58135;50.948;-1.458;2022-08-11T16:00:11;9;9;
70570;PMS5003;58135;50.948;-1.458;2022-08-11T16:02:36;12;12;
70570;PMS5003;58135;50.948;-1.458;2022-08-11T16:05:05;11;11;
70570;PMS5003;58135;50.948;-1.458;2022-08-11T16:07:28;13;13;
70570;PMS5003;58135;50.948;-1.458;2022-08-11T16:09:54;16;16;
70570;PMS5003;58135;50.948;-1.458;2022-08-11T16:12:20;9;9;
70570;PMS5003;58135;50.948;-1.458;2022-08-11T16:14:45;7;7;
70570;PMS5003;58135;50.948;-1.458;2022-08-11T16:17:10;8;7;
70570;PMS5003;58135;50.948;-1.458;2022-08-11T16:19:35;9;9;
70570;PMS5003;58135;50.948;-1.458;2022-08-11T16:22:01;10;10;
70570;PMS5003;58135;50.948;-1.458;2022-08-11T16:24:26;9;9;
70570;PMS5003;58135;50.948;-1.458;2022-08-11T16:26:51;7;7;
70570;PMS5003;58135;50.948;-1.458;2022-08-11T16:29:17;8;8;
70570;PMS5003;58135;50.948;-1.458;2022-08-11T16:31:42;9;9;
70570;PMS5003;58135;50.948;-1.458;2022-08-11T16:34:08;8;8;
70570;PMS5003;58135;50.948;-1.458;2022-08-11T16:36:33;7;7;
70570;PMS5003;58135;50.948;-1.458;2022-08-11T16:38:59;6;6;
70570;PMS5003;58135;50.948;-1.458;2022-08-11T16:41:25;8;7;
70570;PMS5003;58135;50.948;-1.458;2022-08-11T16:43:49;8;8;
70570;PMS5003;58135;50.948;-1.458;2022-08-11T16:46:16;8;7;
70570;PMS5003;58135;50.948;-1.458;2022-08-11T16:48:40;9;9;
70570;PMS5003;58135;50.948;-1.458;2022-08-11T16:51:06;9;8;
70570;PMS5003;58135;50.948;-1.458;2022-08-11T16:53:31;9;9;
70570;PMS5003;58135;50.948;-1.458;2022-08-11T16:55:57;8;8;
70570;PMS5003;58135;50.948;-1.458;2022-08-11T16:58:22;9;9;